Time;durP1;ratioP1;P1;durP2;ratioP2;P2;SDS_P1;SDS_P2;PMS_P1;PMS_P2;Temp;Humidity;BMP_temperature;BMP_pressure;BME280_temperature;BME280_humidity;BME280_pressure;Samples;Min_cycle;Max_cycle;Signal;HPM_P1;HPM_P2
2022/03/01 00:01:13;;;;;;;21.45;11.05;;;4.40;80.20;;;;;;5074883;28;20040;-50
2022/03/01 00:03:39;;;;;;;20.90;11.98;;;4.40;80.20;;;;;;5069909;28;20040;-51
2022/03/01 00:06:04;;;;;;;19.13;11.40;;;4.40;80.00;;;;;;5072080;28;20416;-48
2022/03/01 00:08:30;;;;;;;21.23;11.90;;;4.50;80.10;;;;;;5066710;28;20040;-50
2022/03/01 00:10:55;;;;;;;24.30;14.35;;;4.40;80.10;;;;;;5074139;28;20032;-49
2022/03/01 00:13:21;;;;;;;26.25;16.50;;;4.40;80.20;;;;;;5073719;28;20511;-51
2022/03/01 00:15:46;;;;;;;20.83;12.85;;;4.40;80.70;;;;;;5073988;28;20072;-48
2022/03/01 00:18:12;;;;;;;20.95;12.15;;;4.30;81.20;;;;;;5073439;28;20036;-51
2022/03/01 00:20:37;;;;;;;20.77;11.93;;;4.20;81.70;;;;;;5068712;28;20029;-49
2022/03/01 00:23:03;;;;;;;21.58;12.35;;;4.20;81.80;;;;;;5070997;28;20123;-49
2022/03/01 00:25:29;;;;;;;19.95;12.40;;;4.20;82.10;;;;;;5073904;28;20044;-48
2022/03/01 00:27:54;;;;;;;22.50;12.48;;;4.10;81.70;;;;;;5073252;28;20040;-51
2022/03/01 00:30:20;;;;;;;20.17;12.15;;;4.10;81.60;;;;;;5073713;28;20453;-48
2022/03/01 00:32:46;;;;;;;23.08;12.23;;;4.10;81.10;;;;;;5073164;28;20132;-51
2022/03/01 00:35:11;;;;;;;20.02;11.32;;;4.00;81.40;;;;;;5074151;28;20102;-48
2022/03/01 00:37:37;;;;;;;20.70;12.00;;;4.00;81.20;;;;;;5073319;28;20411;-51
2022/03/01 00:40:04;;;;;;;19.98;11.85;;;4.00;81.40;;;;;;5073838;28;20040;-48
2022/03/01 00:42:30;;;;;;;20.00;11.65;;;4.00;81.20;;;;;;5073049;28;20040;-51
2022/03/01 00:44:55;;;;;;;20.10;11.98;;;4.00;81.00;;;;;;5073618;28;20047;-51
2022/03/01 00:47:21;;;;;;;19.02;11.25;;;4.00;81.30;;;;;;5072952;28;20032;-51
2022/03/01 00:49:46;;;;;;;21.00;12.23;;;3.90;81.30;;;;;;5073324;28;20036;-50
2022/03/01 00:52:12;;;;;;;21.70;11.80;;;4.00;80.80;;;;;;5073478;28;20036;-51
2022/03/01 00:54:37;;;;;;;22.27;11.93;;;4.00;80.30;;;;;;5073494;28;20553;-51
2022/03/01 00:57:03;;;;;;;18.60;11.88;;;4.00;80.70;;;;;;5072982;28;20449;-49
2022/03/01 00:59:29;;;;;;;23.50;12.20;;;3.90;81.10;;;;;;5073052;28;20416;-48
2022/03/01 01:01:54;;;;;;;20.60;11.70;;;3.90;81.40;;;;;;5072899;28;20515;-51
2022/03/01 01:04:20;;;;;;;24.70;12.27;;;3.80;81.40;;;;;;5072326;28;20051;-49
2022/03/01 01:06:46;;;;;;;19.90;12.13;;;3.80;81.60;;;;;;5072608;28;20045;-49
2022/03/01 01:09:13;;;;;;;19.55;12.10;;;3.80;81.70;;;;;;5073363;28;20504;-49
2022/03/01 01:11:40;;;;;;;18.50;11.23;;;3.80;81.80;;;;;;5072641;28;20076;-48
2022/03/01 01:14:05;;;;;;;21.10;12.48;;;3.80;81.60;;;;;;5073480;28;20138;-48
2022/03/01 01:16:31;;;;;;;21.40;11.90;;;3.80;81.70;;;;;;5072246;28;20044;-50
2022/03/01 01:18:56;;;;;;;20.17;11.73;;;3.80;81.60;;;;;;5072811;28;20408;-49
2022/03/01 01:21:22;;;;;;;19.38;11.00;;;3.80;81.50;;;;;;5072488;28;20041;-50
2022/03/01 01:23:48;;;;;;;21.65;12.30;;;3.80;81.40;;;;;;5072923;28;20037;-48
2022/03/01 01:26:13;;;;;;;18.98;11.73;;;3.70;81.20;;;;;;5072642;28;20098;-48
2022/03/01 01:28:39;;;;;;;22.65;12.02;;;3.70;81.60;;;;;;5072420;28;20036;-49
2022/03/01 01:31:04;;;;;;;22.42;12.23;;;3.70;80.90;;;;;;5072510;28;20036;-50
2022/03/01 01:33:30;;;;;;;19.13;11.48;;;3.70;81.10;;;;;;5072190;28;20043;-48
2022/03/01 01:35:56;;;;;;;20.85;11.63;;;3.60;81.40;;;;;;5072612;28;20039;-50
2022/03/01 01:38:21;;;;;;;21.90;11.98;;;3.60;81.10;;;;;;5072359;28;20411;-49
2022/03/01 01:40:47;;;;;;;20.02;12.55;;;3.60;81.40;;;;;;5072272;28;20098;-50
2022/03/01 01:43:12;;;;;;;23.92;12.85;;;3.60;81.60;;;;;;5072494;28;20503;-51
2022/03/01 01:45:38;;;;;;;21.98;12.57;;;3.50;82.00;;;;;;5067474;28;20036;-48
2022/03/01 01:48:04;;;;;;;22.15;12.98;;;3.50;81.80;;;;;;5063627;28;20047;-51
2022/03/01 01:50:32;;;;;;;19.67;11.38;;;3.50;81.70;;;;;;5052182;28;20064;-51
2022/03/01 01:52:58;;;;;;;23.77;12.48;;;3.40;82.10;;;;;;5052300;28;20041;-48
2022/03/01 01:55:25;;;;;;;22.40;11.52;;;3.40;82.40;;;;;;5065738;28;20049;-50
2022/03/01 01:57:51;;;;;;;19.17;11.90;;;3.40;82.80;;;;;;5071749;28;20036;-51
2022/03/01 02:00:17;;;;;;;19.85;11.80;;;3.40;83.30;;;;;;5071749;28;20037;-48
2022/03/01 02:02:43;;;;;;;19.08;11.38;;;3.30;83.20;;;;;;5072085;28;20507;-49
2022/03/01 02:05:10;;;;;;;17.98;11.30;;;3.40;83.00;;;;;;5071859;28;20048;-49
2022/03/01 02:07:36;;;;;;;20.63;11.82;;;3.30;82.90;;;;;;5071779;28;20095;-49
2022/03/01 02:10:03;;;;;;;20.95;11.82;;;3.40;82.80;;;;;;5072218;28;20416;-51
2022/03/01 02:12:28;;;;;;;20.98;11.52;;;3.40;82.70;;;;;;5071699;28;20153;-50
2022/03/01 02:14:54;;;;;;;21.23;12.10;;;3.30;82.60;;;;;;5071568;28;20128;-51
2022/03/01 02:17:20;;;;;;;19.67;11.15;;;3.30;82.60;;;;;;5070896;28;20036;-50
2022/03/01 02:19:47;;;;;;;22.20;12.02;;;3.30;82.50;;;;;;5071844;28;20047;-50
2022/03/01 02:22:13;;;;;;;18.90;11.38;;;3.30;82.70;;;;;;5071301;28;20135;-48
2022/03/01 02:24:39;;;;;;;19.10;11.85;;;3.30;82.70;;;;;;5071796;28;20123;-49
2022/03/01 02:27:05;;;;;;;18.17;11.20;;;3.30;82.70;;;;;;5071410;28;20120;-49
2022/03/01 02:29:32;;;;;;;20.00;11.68;;;3.30;82.30;;;;;;5071141;28;20127;-48
2022/03/01 02:32:00;;;;;;;18.75;11.60;;;3.30;82.40;;;;;;5071460;28;20036;-50
2022/03/01 02:34:25;;;;;;;20.65;11.05;;;3.30;82.20;;;;;;5071603;28;20072;-49
2022/03/01 02:36:51;;;;;;;21.67;11.30;;;3.40;82.10;;;;;;5066954;28;20069;-51
2022/03/01 02:39:17;;;;;;;19.05;11.07;;;3.40;81.70;;;;;;5058994;28;20037;-50
2022/03/01 02:41:45;;;;;;;19.40;11.10;;;3.40;81.50;;;;;;5065359;28;20556;-52
2022/03/01 02:44:11;;;;;;;21.90;11.57;;;3.40;81.70;;;;;;5070831;28;20503;-51
2022/03/01 02:46:37;;;;;;;20.60;10.90;;;3.40;81.80;;;;;;5069997;28;20040;-48
2022/03/01 02:49:05;;;;;;;21.50;11.45;;;3.40;81.80;;;;;;5071536;28;20040;-53
2022/03/01 02:51:31;;;;;;;20.85;11.68;;;3.40;82.10;;;;;;5071340;28;20044;-51
2022/03/01 02:53:56;;;;;;;21.63;12.23;;;3.30;82.40;;;;;;5061433;28;20672;-49
2022/03/01 02:56:23;;;;;;;18.70;10.80;;;3.30;82.60;;;;;;5062030;28;20028;-51
2022/03/01 02:58:48;;;;;;;18.60;11.27;;;3.30;82.50;;;;;;5070411;28;20044;-47
2022/03/01 03:01:14;;;;;;;20.60;11.90;;;3.30;82.70;;;;;;5071334;28;20033;-51
2022/03/01 03:03:40;;;;;;;20.33;11.27;;;3.30;82.80;;;;;;5071322;28;20036;-49
2022/03/01 03:06:05;;;;;;;18.40;10.80;;;3.30;82.90;;;;;;5071028;28;20112;-51
2022/03/01 03:08:32;;;;;;;19.55;11.38;;;3.30;83.00;;;;;;5070325;28;20492;-51
2022/03/01 03:10:57;;;;;;;20.05;11.77;;;3.30;83.30;;;;;;5060023;28;20037;-51
2022/03/01 03:13:24;;;;;;;19.33;11.13;;;3.20;83.30;;;;;;5061895;28;20052;-51
2022/03/01 03:15:49;;;;;;;19.13;11.15;;;3.20;83.50;;;;;;5062774;28;20037;-52
2022/03/01 03:18:15;;;;;;;18.27;10.95;;;3.20;83.80;;;;;;5052550;28;20115;-51
2022/03/01 03:20:41;;;;;;;20.27;10.93;;;3.20;84.00;;;;;;5051126;28;20111;-48
2022/03/01 03:23:07;;;;;;;22.13;12.40;;;3.10;84.30;;;;;;5051070;28;20053;-51
2022/03/01 03:25:33;;;;;;;21.77;12.23;;;3.10;84.60;;;;;;5051138;28;20037;-51
2022/03/01 03:27:59;;;;;;;20.77;11.50;;;3.10;84.60;;;;;;5061531;28;20044;-48
2022/03/01 03:30:25;;;;;;;21.90;12.63;;;3.00;84.90;;;;;;5074810;28;20083;-50
2022/03/01 03:32:50;;;;;;;20.63;10.70;;;3.00;85.30;;;;;;5074730;28;20068;-49
2022/03/01 03:35:16;;;;;;;23.98;11.63;;;3.00;85.50;;;;;;5074907;28;20036;-50
2022/03/01 03:37:41;;;;;;;18.77;12.07;;;3.00;86.00;;;;;;5074694;28;20516;-47
2022/03/01 03:40:08;;;;;;;21.15;11.93;;;2.90;86.50;;;;;;5073335;28;20044;-49
2022/03/01 03:42:34;;;;;;;22.58;12.27;;;2.90;87.20;;;;;;5074297;28;20431;-47
2022/03/01 03:45:00;;;;;;;23.15;12.10;;;2.80;87.40;;;;;;5074872;28;20327;-49
2022/03/01 03:47:26;;;;;;;24.02;13.25;;;2.80;87.90;;;;;;5074473;28;20036;-47
2022/03/01 03:49:51;;;;;;;23.50;12.82;;;2.80;87.80;;;;;;5074648;28;20039;-51
2022/03/01 03:52:17;;;;;;;21.88;11.50;;;2.80;88.00;;;;;;5074335;28;20124;-48
2022/03/01 03:54:42;;;;;;;21.63;11.77;;;2.80;88.30;;;;;;5074291;28;20042;-49
2022/03/01 03:57:08;;;;;;;22.13;12.80;;;2.80;89.10;;;;;;5065343;28;20081;-48
2022/03/01 03:59:38;;;;;;;20.05;11.88;;;2.80;88.70;;;;;;5061727;28;20064;-48
2022/03/01 04:02:06;;;;;;;19.85;11.80;;;2.90;88.10;;;;;;5054292;28;20412;-48
2022/03/01 04:04:32;;;;;;;22.30;12.10;;;2.90;88.20;;;;;;5054401;28;20153;-48
2022/03/01 04:06:58;;;;;;;20.27;12.48;;;2.90;87.80;;;;;;5054443;28;20059;-48
2022/03/01 04:09:24;;;;;;;21.20;12.50;;;2.90;87.60;;;;;;5060371;28;20032;-49
2022/03/01 04:11:49;;;;;;;23.02;12.32;;;3.00;88.00;;;;;;5074018;28;20033;-51
2022/03/01 04:14:17;;;;;;;22.88;11.48;;;3.00;87.90;;;;;;5074022;28;20041;-49
2022/03/01 04:16:43;;;;;;;19.67;11.73;;;3.10;87.50;;;;;;5073996;28;20067;-51
2022/03/01 04:19:10;;;;;;;23.17;11.95;;;3.10;87.30;;;;;;5073911;28;20075;-50
2022/03/01 04:21:36;;;;;;;22.77;12.27;;;3.10;86.70;;;;;;5073981;28;20698;-53
2022/03/01 04:24:02;;;;;;;23.92;11.80;;;3.10;86.40;;;;;;5073555;28;20086;-53
2022/03/01 04:26:28;;;;;;;23.02;12.40;;;3.10;86.50;;;;;;5073302;28;20416;-48
2022/03/01 04:28:54;;;;;;;19.27;11.32;;;3.10;86.50;;;;;;5065487;28;20082;-49
2022/03/01 04:33:48;;;;;;;23.75;11.93;;;3.10;86.60;;;;;;5020434;28;20406;-55
2022/03/01 04:36:15;;;;;;;22.08;12.32;;;3.00;86.70;;;;;;5015821;28;20076;-55
2022/03/01 04:38:41;;;;;;;23.35;12.57;;;3.00;86.90;;;;;;5015514;28;20107;-55
2022/03/01 04:41:07;;;;;;;20.30;12.02;;;3.00;87.10;;;;;;5032908;28;20132;-55
2022/03/01 04:43:33;;;;;;;23.88;12.48;;;3.00;87.30;;;;;;5052841;28;20579;-55
2022/03/01 04:45:58;;;;;;;22.83;12.32;;;3.00;87.30;;;;;;5053372;28;20041;-55
2022/03/01 04:48:24;;;;;;;22.17;11.88;;;3.00;87.30;;;;;;5053604;28;20056;-55
2022/03/01 04:50:51;;;;;;;21.58;12.23;;;3.00;87.30;;;;;;5053483;28;20040;-54
2022/03/01 04:53:18;;;;;;;21.42;13.20;;;3.00;87.40;;;;;;5052710;28;20040;-55
2022/03/01 04:55:44;;;;;;;18.95;11.35;;;3.00;87.40;;;;;;5051914;28;20098;-55
2022/03/01 04:58:11;;;;;;;21.20;11.38;;;3.00;87.40;;;;;;5051480;28;20106;-56
2022/03/01 05:00:36;;;;;;;21.58;12.50;;;3.00;87.30;;;;;;5052915;28;20040;-55
2022/03/01 05:03:02;;;;;;;22.48;11.88;;;3.00;87.30;;;;;;5044813;28;20171;-55
2022/03/01 05:05:27;;;;;;;22.42;12.93;;;3.00;87.60;;;;;;5033624;28;20033;-55
2022/03/01 05:07:54;;;;;;;20.95;12.23;;;2.90;88.70;;;;;;5045517;28;20068;-55
2022/03/01 05:10:20;;;;;;;23.83;12.85;;;2.90;89.30;;;;;;5044219;28;20115;-55
2022/03/01 05:12:52;;;;;;;20.27;12.20;;;2.80;89.50;;;;;;5032967;28;20512;-55
2022/03/01 05:15:19;;;;;;;24.00;13.05;;;2.90;89.30;;;;;;5015395;28;20087;-56
2022/03/01 05:17:46;;;;;;;24.02;12.65;;;2.90;89.20;;;;;;5032778;28;20675;-54
2022/03/01 05:20:13;;;;;;;21.05;12.13;;;2.90;89.10;;;;;;5027461;28;20047;-55
2022/03/01 05:22:40;;;;;;;22.08;12.32;;;2.90;89.10;;;;;;5052132;28;20037;-54
2022/03/01 05:25:09;;;;;;;24.05;12.43;;;3.00;89.00;;;;;;5048567;28;20528;-55
2022/03/01 05:27:35;;;;;;;24.48;12.70;;;3.00;88.70;;;;;;5032688;28;20038;-55
2022/03/01 05:30:01;;;;;;;21.55;12.57;;;3.00;88.40;;;;;;5049175;28;20391;-54
2022/03/01 05:32:27;;;;;;;22.38;12.48;;;3.00;88.40;;;;;;5052538;28;20036;-55
2022/03/01 05:34:52;;;;;;;23.88;12.57;;;3.00;88.50;;;;;;5052334;28;20505;-54
2022/03/01 05:37:18;;;;;;;22.33;12.35;;;3.00;88.50;;;;;;5052279;28;20466;-54
2022/03/01 05:39:44;;;;;;;24.33;12.68;;;3.00;88.60;;;;;;5050014;28;20044;-54
2022/03/01 05:42:10;;;;;;;20.13;11.85;;;3.10;88.50;;;;;;5035893;28;20489;-51
2022/03/01 05:44:36;;;;;;;23.00;12.10;;;3.10;89.00;;;;;;5047875;28;20065;-54
2022/03/01 05:47:02;;;;;;;21.65;11.90;;;3.10;88.70;;;;;;5018958;28;20077;-54
2022/03/01 05:49:28;;;;;;;25.50;12.35;;;3.10;88.50;;;;;;5048207;28;20539;-53
2022/03/01 05:51:53;;;;;;;21.77;12.60;;;3.20;88.30;;;;;;5050665;28;20048;-54
2022/03/01 05:54:19;;;;;;;19.55;12.32;;;3.20;88.30;;;;;;5043243;28;20065;-54
2022/03/01 05:56:44;;;;;;;23.25;12.20;;;3.20;88.30;;;;;;5046369;28;20566;-54
2022/03/01 05:59:10;;;;;;;26.77;13.77;;;3.10;88.30;;;;;;5037592;28;20033;-54
2022/03/01 06:01:35;;;;;;;23.55;12.80;;;3.10;87.90;;;;;;5051835;28;20040;-54
2022/03/01 06:04:01;;;;;;;21.73;12.63;;;3.10;88.30;;;;;;5051915;28;20377;-54
2022/03/01 06:06:26;;;;;;;25.48;13.18;;;3.10;88.70;;;;;;5051713;28;20040;-54
2022/03/01 06:08:52;;;;;;;21.63;12.45;;;3.00;89.30;;;;;;5052030;28;20037;-55
2022/03/01 06:11:17;;;;;;;21.33;12.40;;;3.00;89.20;;;;;;5051635;28;20477;-54
2022/03/01 06:13:43;;;;;;;21.95;13.00;;;3.00;89.10;;;;;;5050221;28;20039;-54
2022/03/01 06:16:09;;;;;;;25.20;13.55;;;3.00;88.90;;;;;;5051745;28;20064;-53
2022/03/01 06:18:35;;;;;;;23.75;13.70;;;3.00;88.70;;;;;;5050724;28;20037;-54
2022/03/01 06:21:01;;;;;;;23.38;12.85;;;3.00;89.30;;;;;;5034333;28;20523;-54
2022/03/01 06:23:28;;;;;;;23.98;13.45;;;2.90;89.50;;;;;;5045771;28;20392;-53
2022/03/01 06:25:53;;;;;;;23.58;13.13;;;2.90;89.60;;;;;;5045701;28;20104;-54
2022/03/01 06:28:19;;;;;;;23.52;13.70;;;2.90;89.80;;;;;;5040261;28;20092;-54
2022/03/01 06:30:44;;;;;;;23.13;13.23;;;2.90;90.10;;;;;;5044314;28;20041;-54
2022/03/01 06:33:10;;;;;;;24.02;13.05;;;2.80;90.20;;;;;;5048476;28;20100;-54
2022/03/01 06:35:35;;;;;;;24.27;13.73;;;2.80;90.50;;;;;;5048390;28;20029;-54
2022/03/01 06:38:01;;;;;;;23.63;13.85;;;2.80;90.20;;;;;;5049987;28;20072;-52
2022/03/01 06:40:28;;;;;;;24.05;13.50;;;2.80;90.20;;;;;;5046780;28;20033;-54
2022/03/01 06:42:54;;;;;;;24.85;14.18;;;2.80;90.20;;;;;;5050230;28;20037;-54
2022/03/01 06:45:20;;;;;;;26.65;15.15;;;2.90;90.10;;;;;;5045158;28;20524;-54
2022/03/01 06:47:46;;;;;;;33.22;18.25;;;2.90;89.80;;;;;;5047652;28;20047;-53
2022/03/01 06:50:11;;;;;;;31.00;17.33;;;3.00;90.00;;;;;;5041506;28;20068;-54
2022/03/01 06:52:37;;;;;;;32.70;17.65;;;3.00;90.00;;;;;;5015858;28;20037;-54
2022/03/01 06:55:05;;;;;;;31.13;17.83;;;3.00;90.00;;;;;;5031316;28;20049;-53
2022/03/01 06:57:31;;;;;;;31.08;18.55;;;3.10;90.00;;;;;;5049873;28;20037;-54
2022/03/01 06:59:57;;;;;;;25.15;14.68;;;3.10;89.90;;;;;;5048828;28;20059;-54
2022/03/01 07:02:25;;;;;;;26.55;14.68;;;3.10;89.90;;;;;;5049614;28;20103;-53
2022/03/01 07:04:51;;;;;;;26.20;14.93;;;3.10;89.90;;;;;;5042176;28;20041;-54
2022/03/01 07:07:17;;;;;;;34.38;18.27;;;3.20;90.00;;;;;;5048774;28;20044;-52
2022/03/01 07:09:43;;;;;;;31.73;18.33;;;3.20;90.00;;;;;;5059318;28;20116;-53
2022/03/01 07:12:09;;;;;;;34.60;18.00;;;3.30;89.60;;;;;;5065775;28;20162;-52
2022/03/01 07:14:35;;;;;;;33.45;17.92;;;3.40;89.70;;;;;;5050715;28;20064;-54
2022/03/01 07:17:01;;;;;;;28.92;15.13;;;3.40;89.60;;;;;;5033853;28;20537;-54
2022/03/01 07:19:26;;;;;;;26.25;13.85;;;3.40;89.30;;;;;;5035183;28;20037;-53
2022/03/01 07:21:52;;;;;;;23.70;13.95;;;3.40;89.30;;;;;;5045361;28;20186;-54
2022/03/01 07:24:17;;;;;;;26.23;15.05;;;3.50;89.20;;;;;;5047798;28;20048;-54
2022/03/01 07:26:43;;;;;;;21.38;13.05;;;3.50;89.20;;;;;;5052796;28;20055;-53
2022/03/01 07:29:08;;;;;;;24.20;13.05;;;3.60;89.60;;;;;;5052247;28;20037;-52
2022/03/01 07:31:34;;;;;;;24.92;12.65;;;3.50;90.10;;;;;;5051410;28;20040;-54
2022/03/01 07:33:59;;;;;;;23.02;12.30;;;3.60;89.70;;;;;;5052615;28;20142;-54
2022/03/01 07:36:25;;;;;;;22.42;12.57;;;3.60;89.60;;;;;;5033621;28;20059;-50
2022/03/01 07:38:51;;;;;;;23.63;13.35;;;3.70;89.70;;;;;;5050271;28;20063;-54
2022/03/01 07:41:17;;;;;;;25.17;13.05;;;3.70;89.50;;;;;;5034440;28;20029;-53
2022/03/01 07:43:43;;;;;;;25.30;13.93;;;3.90;90.00;;;;;;5052619;28;20037;-55
2022/03/01 07:46:12;;;;;;;27.10;13.40;;;3.70;89.90;;;;;;5052069;28;20048;-53
2022/03/01 07:48:41;;;;;;;24.63;13.43;;;3.80;90.20;;;;;;5052313;28;20497;-54
2022/03/01 07:51:07;;;;;;;25.73;13.77;;;3.90;90.20;;;;;;5052156;28;20037;-54
2022/03/01 07:53:32;;;;;;;23.48;13.70;;;3.90;89.90;;;;;;5052125;28;20043;-53
2022/03/01 07:55:58;;;;;;;25.15;15.02;;;3.90;89.70;;;;;;5050436;28;20037;-51
2022/03/01 07:58:23;;;;;;;25.27;14.13;;;3.90;89.60;;;;;;5052941;28;20048;-55
2022/03/01 08:00:49;;;;;;;21.13;12.75;;;4.00;89.90;;;;;;5051526;28;20313;-54
2022/03/01 08:03:15;;;;;;;25.88;13.77;;;4.00;89.70;;;;;;5052199;28;20578;-53
2022/03/01 08:05:41;;;;;;;23.92;13.20;;;4.00;89.40;;;;;;5052070;28;20040;-54
2022/03/01 08:08:07;;;;;;;24.98;13.70;;;4.10;89.00;;;;;;5052794;28;20553;-54
2022/03/01 08:10:32;;;;;;;24.77;13.45;;;4.10;89.10;;;;;;5049798;28;20127;-54
2022/03/01 08:12:58;;;;;;;23.90;14.13;;;4.10;89.20;;;;;;5052074;28;20033;-54
2022/03/01 08:15:26;;;;;;;22.83;13.15;;;4.10;89.00;;;;;;5050694;28;20086;-54
2022/03/01 08:17:53;;;;;;;24.75;13.50;;;4.10;89.40;;;;;;5052565;28;20040;-53
2022/03/01 08:20:19;;;;;;;23.80;13.35;;;4.10;88.70;;;;;;5051348;28;20471;-54
2022/03/01 08:22:45;;;;;;;26.05;13.23;;;4.10;89.10;;;;;;5052096;28;20041;-54
2022/03/01 08:25:11;;;;;;;24.60;13.95;;;4.20;89.20;;;;;;5052730;28;20155;-53
2022/03/01 08:27:37;;;;;;;23.42;13.80;;;4.20;88.90;;;;;;5051710;28;20033;-54
2022/03/01 08:30:04;;;;;;;23.88;13.82;;;4.20;89.30;;;;;;5052344;28;20603;-52
2022/03/01 08:32:29;;;;;;;20.73;13.45;;;4.20;88.90;;;;;;5051479;28;20116;-51
2022/03/01 08:34:55;;;;;;;25.77;13.65;;;4.30;89.10;;;;;;5051951;28;20112;-48
2022/03/01 08:37:20;;;;;;;27.55;14.18;;;4.40;89.20;;;;;;5051625;28;20029;-56
2022/03/01 08:39:46;;;;;;;22.63;12.93;;;4.50;88.50;;;;;;5052809;28;20033;-54
2022/03/01 08:42:12;;;;;;;23.80;13.63;;;4.70;92.30;;;;;;5050990;28;20312;-53
2022/03/01 08:44:38;;;;;;;24.17;12.95;;;4.80;90.20;;;;;;5051705;28;20186;-50
2022/03/01 08:47:04;;;;;;;21.60;13.77;;;4.80;88.80;;;;;;5044788;28;20037;-54
2022/03/01 08:49:29;;;;;;;23.45;13.07;;;4.80;89.00;;;;;;5033684;28;20045;-53
2022/03/01 08:51:55;;;;;;;25.02;14.18;;;4.90;88.80;;;;;;5033658;28;20038;-54
2022/03/01 08:54:21;;;;;;;24.77;13.95;;;4.90;89.00;;;;;;5032231;28;20041;-54
2022/03/01 08:56:46;;;;;;;25.30;13.77;;;4.90;89.40;;;;;;5033790;28;20037;-54
2022/03/01 08:59:12;;;;;;;23.83;13.73;;;5.00;89.20;;;;;;5044528;28;20048;-54
2022/03/01 09:01:38;;;;;;;25.35;14.52;;;5.00;89.20;;;;;;5050533;28;20090;-54
2022/03/01 09:04:03;;;;;;;22.55;13.48;;;5.10;88.80;;;;;;5052349;28;20029;-51
2022/03/01 09:06:29;;;;;;;23.13;13.90;;;5.10;88.90;;;;;;5052025;28;20043;-54
2022/03/01 09:08:55;;;;;;;24.00;14.50;;;5.10;88.60;;;;;;5049698;28;20041;-55
2022/03/01 09:11:21;;;;;;;25.98;13.25;;;5.20;88.70;;;;;;5045468;28;20037;-54
2022/03/01 09:13:47;;;;;;;23.52;13.98;;;5.20;88.30;;;;;;5049222;28;20032;-55
2022/03/01 09:16:13;;;;;;;23.40;14.43;;;5.20;88.20;;;;;;5058690;28;20374;-54
2022/03/01 09:18:39;;;;;;;27.73;15.02;;;5.30;88.70;;;;;;5051866;28;20033;-54
2022/03/01 09:21:05;;;;;;;25.05;14.93;;;5.40;89.60;;;;;;5052276;28;20064;-53
2022/03/01 09:23:34;;;;;;;25.75;15.93;;;5.40;89.90;;;;;;5054678;28;20527;-55
2022/03/01 09:26:00;;;;;;;26.63;15.65;;;5.50;89.90;;;;;;5059095;28;20036;-55
2022/03/01 09:28:26;;;;;;;24.83;14.85;;;5.60;89.30;;;;;;5059696;28;20041;-56
2022/03/01 09:30:52;;;;;;;25.35;14.63;;;5.60;89.10;;;;;;5060397;28;20040;-55
2022/03/01 09:33:18;;;;;;;27.17;14.40;;;5.70;89.20;;;;;;5049558;28;20052;-55
2022/03/01 09:35:45;;;;;;;23.73;14.35;;;5.80;89.30;;;;;;5050364;28;20037;-55
2022/03/01 09:38:11;;;;;;;26.50;14.77;;;5.90;89.20;;;;;;5059390;28;20556;-52
2022/03/01 09:40:37;;;;;;;24.13;14.73;;;6.00;89.50;;;;;;5058565;28;20029;-52
2022/03/01 09:43:03;;;;;;;23.10;13.85;;;6.10;88.70;;;;;;5034713;28;20516;-53
2022/03/01 09:45:29;;;;;;;43.92;14.60;;;6.20;87.70;;;;;;5053718;28;20040;-54
2022/03/01 09:47:55;;;;;;;22.75;14.25;;;6.30;87.70;;;;;;5061390;28;20138;-55
2022/03/01 09:50:27;;;;;;;22.13;13.02;;;6.30;87.90;;;;;;5062800;28;20043;-55
2022/03/01 09:52:57;;;;;;;25.92;13.43;;;6.40;88.10;;;;;;5056990;28;20048;-54
2022/03/01 09:55:24;;;;;;;22.92;13.45;;;6.30;87.20;;;;;;5059973;28;20056;-52
2022/03/01 09:57:50;;;;;;;21.60;13.70;;;6.30;86.40;;;;;;5059265;28;20033;-52
2022/03/01 10:00:17;;;;;;;21.60;13.18;;;6.30;87.30;;;;;;5050575;28;20036;-55
2022/03/01 10:02:44;;;;;;;24.42;14.38;;;6.40;87.20;;;;;;5052813;28;20045;-55
2022/03/01 10:05:11;;;;;;;22.50;14.05;;;6.40;87.40;;;;;;5059662;28;20047;-55
2022/03/01 10:07:45;;;;;;;22.70;13.48;;;6.50;87.30;;;;;;5048255;28;20029;-54
2022/03/01 10:10:17;;;;;;;22.42;13.98;;;6.50;86.30;;;;;;5049252;28;20049;-55
2022/03/01 10:12:50;;;;;;;22.73;12.95;;;6.60;87.00;;;;;;5059800;28;20044;-55
2022/03/01 10:15:16;;;;;;;21.92;13.50;;;6.80;86.80;;;;;;5050383;28;20045;-53
2022/03/01 10:17:45;;;;;;;22.90;14.15;;;6.80;86.60;;;;;;5057239;28;20044;-55
2022/03/01 10:20:15;;;;;;;29.33;13.80;;;6.90;86.30;;;;;;5051762;28;20048;-54
2022/03/01 10:22:52;;;;;;;23.92;13.15;;;7.10;85.80;;;;;;5048946;28;20125;-54
2022/03/01 10:25:23;;;;;;;24.48;14.02;;;7.20;84.90;;;;;;5062020;28;20094;-53
2022/03/01 10:27:51;;;;;;;24.08;13.75;;;7.30;84.70;;;;;;5062813;28;20515;-55
2022/03/01 10:30:25;;;;;;;23.75;13.82;;;7.30;84.30;;;;;;5061555;28;20045;-52
2022/03/01 10:33:01;;;;;;;21.58;13.20;;;7.40;84.20;;;;;;5080429;22;20072;-57
2022/03/01 10:35:27;;;;;;;22.67;13.48;;;7.40;84.30;;;;;;5043825;28;20037;-55
2022/03/01 10:37:52;;;;;;;24.73;14.27;;;7.50;84.00;;;;;;5037930;28;20110;-54
2022/03/01 10:40:20;;;;;;;22.20;13.38;;;7.60;83.30;;;;;;5051364;28;20378;-55
2022/03/01 10:43:09;;;;;;;22.30;13.30;;;7.70;82.40;;;;;;5051301;28;20203;-55
2022/03/01 10:45:47;;;;;;;21.35;13.63;;;7.80;82.10;;;;;;5049370;28;20485;-55
2022/03/01 10:48:34;;;;;;;23.17;14.38;;;7.90;82.20;;;;;;5050561;28;20377;-55
2022/03/01 10:51:10;;;;;;;21.73;13.45;;;8.10;82.50;;;;;;5044200;28;20394;-55
2022/03/01 10:53:39;;;;;;;21.80;13.55;;;8.30;81.60;;;;;;5036508;28;20044;-55
2022/03/01 10:56:08;;;;;;;21.30;12.98;;;8.30;81.10;;;;;;5042267;28;20065;-55
2022/03/01 10:58:36;;;;;;;20.88;13.82;;;8.40;80.20;;;;;;5039889;28;20071;-55
2022/03/01 11:01:03;;;;;;;21.90;13.70;;;8.40;80.20;;;;;;5043090;28;20472;-57
2022/03/01 11:03:30;;;;;;;23.85;14.48;;;8.40;79.90;;;;;;5044458;28;20044;-55
2022/03/01 11:05:57;;;;;;;23.67;13.90;;;8.40;80.50;;;;;;5039848;28;20068;-53
2022/03/01 11:08:30;;;;;;;21.73;13.60;;;8.50;81.00;;;;;;5040960;28;20088;-55
2022/03/01 11:10:58;;;;;;;20.85;13.30;;;8.50;79.50;;;;;;5040510;28;20037;-55
2022/03/01 11:13:25;;;;;;;20.92;13.30;;;8.50;78.10;;;;;;5043433;28;20124;-55
2022/03/01 11:15:53;;;;;;;23.42;13.02;;;8.50;78.40;;;;;;5033997;28;20033;-49
2022/03/01 11:18:40;;;;;;;21.90;13.75;;;8.50;78.50;;;;;;5030852;28;20060;-50
2022/03/01 11:21:08;;;;;;;21.50;13.68;;;8.50;78.70;;;;;;5036391;28;20492;-50
2022/03/01 11:23:34;;;;;;;21.92;13.30;;;8.60;79.00;;;;;;5043374;28;20377;-52
2022/03/01 11:26:16;;;;;;;21.13;13.57;;;8.60;79.20;;;;;;5044866;28;20102;-51
2022/03/01 11:28:53;;;;;;;22.83;13.73;;;8.60;79.20;;;;;;5047483;28;20037;-51
2022/03/01 11:31:27;;;;;;;21.95;13.60;;;8.70;79.20;;;;;;5042472;28;20037;-49
2022/03/01 11:34:02;;;;;;;21.05;12.95;;;8.70;79.50;;;;;;5038023;28;20103;-50
2022/03/01 11:36:30;;;;;;;21.58;13.98;;;8.80;78.20;;;;;;5041803;28;20116;-52
2022/03/01 11:39:09;;;;;;;21.52;13.45;;;8.90;78.00;;;;;;5041808;28;20059;-48
2022/03/01 11:42:03;;;;;;;20.77;13.90;;;8.90;75.50;;;;;;5038881;28;20033;-54
2022/03/01 11:44:35;;;;;;;21.70;14.35;;;8.90;74.60;;;;;;5042405;28;20045;-52
2022/03/01 11:47:06;;;;;;;20.08;12.85;;;8.90;75.30;;;;;;5046973;28;20419;-49
2022/03/01 11:49:40;;;;;;;21.35;13.77;;;8.80;74.30;;;;;;5050942;28;20041;-52
2022/03/01 11:52:19;;;;;;;21.10;13.38;;;8.90;75.40;;;;;;5037859;28;20044;-52
2022/03/01 11:54:48;;;;;;;20.35;13.55;;;8.90;76.20;;;;;;5042240;28;20064;-51
2022/03/01 11:57:14;;;;;;;25.30;14.45;;;8.90;77.00;;;;;;5060833;28;20037;-52
2022/03/01 11:59:43;;;;;;;24.58;16.80;;;8.90;76.90;;;;;;5049577;28;20045;-52
2022/03/01 12:02:10;;;;;;;23.30;15.85;;;8.90;76.50;;;;;;5039650;28;20037;-52
2022/03/01 12:05:02;;;;;;;78.43;71.20;;;8.90;75.70;;;;;;5044167;28;20131;-51
2022/03/01 12:07:31;;;;;;;23.70;14.98;;;9.00;74.50;;;;;;5042597;28;20080;-51
2022/03/01 12:10:03;;;;;;;25.58;18.40;;;9.10;74.90;;;;;;5046547;28;20049;-52
2022/03/01 12:12:37;;;;;;;21.95;14.70;;;9.10;74.50;;;;;;5050242;28;20492;-49
2022/03/01 12:15:06;;;;;;;21.70;13.57;;;9.10;74.90;;;;;;5040949;28;20030;-50
2022/03/01 12:17:46;;;;;;;23.63;14.18;;;9.10;75.50;;;;;;5048053;28;20091;-54
2022/03/01 12:20:16;;;;;;;19.45;13.18;;;9.10;75.20;;;;;;5043707;28;20091;-52
2022/03/01 12:22:51;;;;;;;21.13;14.48;;;9.20;75.10;;;;;;5041486;28;20038;-52
2022/03/01 12:25:17;;;;;;;21.02;13.70;;;9.20;74.60;;;;;;5044881;28;20222;-52
2022/03/01 12:27:43;;;;;;;26.33;13.55;;;9.10;75.10;;;;;;5038423;28;20123;-49
2022/03/01 12:30:10;;;;;;;26.35;14.70;;;9.10;74.70;;;;;;5041650;28;20029;-54
2022/03/01 12:32:35;;;;;;;22.00;14.35;;;9.10;74.70;;;;;;5048466;28;20082;-49
2022/03/01 12:35:02;;;;;;;43.53;27.77;;;9.10;75.00;;;;;;5043447;28;20436;-49
2022/03/01 12:37:28;;;;;;;28.50;18.10;;;9.10;74.90;;;;;;5049769;28;20033;-50